Time;durP1;ratioP1;P1;durP2;ratioP2;P2;SDS_P1;SDS_P2;PMS_P1;PMS_P2;Temp;Humidity;BMP_temperature;BMP_pressure;BME280_temperature;BME280_humidity;BME280_pressure;Samples;Min_cycle;Max_cycle;Signal;HPM_P1;HPM_P2
2021/09/16 00:01:23;;;;;;;10.10;3.83;;;;;;;14.81;100.00;100114.38;5058050;28;20030;-88
2021/09/16 00:03:49;;;;;;;15.60;4.72;;;;;;;14.81;100.00;100114.38;5058157;28;20480;-89
2021/09/16 00:06:14;;;;;;;15.82;5.88;;;;;;;14.80;100.00;100112.66;5058013;28;20054;-89
2021/09/16 00:08:39;;;;;;;15.82;4.78;;;;;;;14.83;100.00;100115.16;5058397;28;20032;-89
2021/09/16 00:11:05;;;;;;;10.95;4.78;;;;;;;14.81;100.00;100114.38;5057841;28;20476;-89
2021/09/16 00:13:30;;;;;;;10.43;4.38;;;;;;;14.76;100.00;100113.72;5057893;28;20024;-89
2021/09/16 00:15:55;;;;;;;11.40;4.75;;;;;;;14.74;100.00;100124.22;5057791;28;20020;-88
2021/09/16 00:18:21;;;;;;;14.18;4.75;;;;;;;14.79;100.00;100112.75;5057826;28;20028;-88
2021/09/16 00:20:47;;;;;;;10.23;4.45;;;;;;;14.76;100.00;100120.72;5057961;28;20485;-89
2021/09/16 00:23:12;;;;;;;15.00;5.30;;;;;;;14.72;100.00;100127.84;5075580;28;20071;-88
2021/09/16 00:25:38;;;;;;;10.73;4.38;;;;;;;14.77;100.00;100125.84;5057654;28;20060;-88
2021/09/16 00:28:03;;;;;;;10.38;4.55;;;;;;;14.71;100.00;100123.50;5057569;28;20039;-89
2021/09/16 00:30:29;;;;;;;19.08;5.57;;;;;;;14.74;100.00;100125.97;5075646;28;20499;-89
2021/09/16 00:32:54;;;;;;;15.07;4.43;;;;;;;14.70;100.00;100119.19;5057580;28;20472;-89
2021/09/16 00:35:19;;;;;;;13.20;4.68;;;;;;;14.70;100.00;100124.44;5057568;28;20013;-89
2021/09/16 00:37:44;;;;;;;18.00;5.63;;;;;;;14.67;100.00;100125.41;5057511;28;20024;-89
2021/09/16 00:40:11;;;;;;;9.38;4.07;;;;;;;14.68;100.00;100124.47;5057657;28;20485;-89
2021/09/16 00:42:36;;;;;;;13.45;4.40;;;;;;;14.67;100.00;100125.41;5057088;28;20119;-89
2021/09/16 00:45:01;;;;;;;12.05;4.18;;;;;;;14.64;100.00;100127.28;5057148;28;20116;-89
2021/09/16 00:47:27;;;;;;;9.65;4.38;;;;;;;14.67;100.00;100127.16;5057300;28;20028;-89
2021/09/16 00:49:52;;;;;;;11.43;4.40;;;;;;;14.60;100.00;100133.56;5075140;28;20107;-89
2021/09/16 00:52:17;;;;;;;11.68;4.45;;;;;;;14.63;100.00;100128.22;5057222;28;20020;-88
2021/09/16 00:54:45;;;;;;;11.55;3.97;;;;;;;14.56;100.00;100135.44;5056741;28;20070;-89
2021/09/16 00:57:12;;;;;;;12.32;3.67;;;;;;;14.58;100.00;100127.56;5074992;28;20036;-89
2021/09/16 00:59:38;;;;;;;12.93;4.60;;;;;;;14.56;100.00;100129.38;5057167;28;20079;-89
2021/09/16 01:02:04;;;;;;;9.05;3.40;;;;;;;14.54;100.00;100133.81;5057147;28;20028;-89
2021/09/16 01:04:29;;;;;;;10.88;4.72;;;;;;;14.58;100.00;100135.38;5056934;28;20488;-89
2021/09/16 01:06:55;;;;;;;8.88;3.53;;;;;;;14.53;100.00;100126.88;5056845;28;20020;-89
2021/09/16 01:09:21;;;;;;;14.02;4.15;;;;;;;14.51;100.00;100129.56;5056875;28;20024;-89
2021/09/16 01:11:46;;;;;;;9.50;4.05;;;;;;;14.54;100.00;100131.22;5056960;28;20505;-89
2021/09/16 01:14:20;;;;;;;9.95;4.00;;;;;;;14.56;100.00;100129.38;5056911;28;20031;-89
2021/09/16 01:16:45;;;;;;;;;;;;;;;14.52;100.00;100133.03;5057161;28;20016;-89
2021/09/16 01:19:10;;;;;;;9.97;3.80;;;;;;;14.54;100.00;100131.22;5056751;28;19931;-89
2021/09/16 01:21:36;;;;;;;9.93;3.72;;;;;;;14.46;100.00;100140.16;5074260;28;20059;-89
2021/09/16 01:24:01;;;;;;;10.27;3.30;;;;;;;14.39;100.00;100137.88;5056651;28;20668;-89
2021/09/16 01:26:26;;;;;;;8.85;3.30;;;;;;;14.36;100.00;100140.59;5056428;28;20021;-88
2021/09/16 01:28:52;;;;;;;7.40;3.25;;;;;;;14.40;100.00;100140.41;5056493;28;20032;-88
2021/09/16 01:31:40;;;;;;;11.45;3.28;;;;;;;14.36;100.00;100141.44;5056447;28;20473;-89
2021/09/16 01:34:08;;;;;;;9.98;3.17;;;;;;;14.32;100.00;100141.66;5056459;28;20369;-89
2021/09/16 01:36:34;;;;;;;12.30;3.10;;;;;;;14.31;100.00;100146.00;5074289;28;20430;-88
2021/09/16 01:39:01;;;;;;;7.85;2.58;;;;;;;14.22;100.00;100141.13;5056342;28;20024;-89
2021/09/16 01:41:26;;;;;;;13.32;2.70;;;;;;;14.20;100.00;100135.16;5056046;28;20025;-88
2021/09/16 01:43:52;;;;;;;14.05;2.67;;;;;;;14.17;100.00;100127.44;5056225;28;20039;-89
2021/09/16 01:46:17;;;;;;;7.63;1.98;;;;;;;14.14;100.00;100133.63;5056006;28;20064;-89
2021/09/16 01:48:42;;;;;;;10.15;1.98;;;;;;;14.09;100.00;100132.13;5056170;28;20025;-89
2021/09/16 01:51:08;;;;;;;9.02;1.90;;;;;;;14.05;100.00;100136.59;5055999;28;20089;-89
2021/09/16 01:53:33;;;;;;;12.25;2.10;;;;;;;14.01;100.00;100130.66;5055926;28;20063;-89
2021/09/16 01:55:58;;;;;;;8.45;1.70;;;;;;;14.02;100.00;100131.50;5073874;28;20050;-89
2021/09/16 01:58:23;;;;;;;10.55;1.70;;;;;;;14.02;100.00;100129.75;5073775;28;20032;-88
2021/09/16 02:00:49;;;;;;;9.30;1.70;;;;;;;14.03;100.00;100123.63;5055933;28;20024;-88
2021/09/16 02:03:14;;;;;;;8.57;1.88;;;;;;;13.96;100.00;100129.16;5055979;28;20064;-88
2021/09/16 02:05:39;;;;;;;8.95;1.60;;;;;;;13.92;100.00;100128.41;5055771;28;20086;-89
2021/09/16 02:08:05;;;;;;;14.80;1.70;;;;;;;13.94;100.00;100125.75;5055104;28;20481;-88
2021/09/16 02:10:30;;;;;;;10.98;2.20;;;;;;;13.95;100.00;100119.63;5056128;28;20074;-89
2021/09/16 02:12:55;;;;;;;6.88;1.67;;;;;;;13.92;100.00;100123.22;5055743;28;20033;-89
2021/09/16 02:15:20;;;;;;;10.48;1.90;;;;;;;13.84;100.00;100120.03;5055710;28;20020;-89
2021/09/16 02:17:46;;;;;;;5.97;1.40;;;;;;;13.82;100.00;100120.13;5055823;28;20021;-89
2021/09/16 02:20:11;;;;;;;6.20;1.20;;;;;;;13.84;100.00;100130.47;5055539;28;20062;-89
2021/09/16 02:22:37;;;;;;;9.30;1.60;;;;;;;13.79;100.00;100133.25;5055535;28;20040;-89
2021/09/16 02:25:02;;;;;;;11.93;1.50;;;;;;;13.84;100.00;100135.69;5055519;28;20036;-89
2021/09/16 02:27:28;;;;;;;7.22;1.58;;;;;;;13.75;100.00;100131.66;5056275;28;20144;-89
2021/09/16 02:29:53;;;;;;;9.35;1.48;;;;;;;13.79;100.00;100133.25;5055510;28;20052;-89
2021/09/16 02:32:20;;;;;;;5.95;1.33;;;;;;;13.75;100.00;100126.44;5055355;28;20075;-89
2021/09/16 02:34:45;;;;;;;9.02;2.13;;;;;;;13.72;100.00;100147.41;5055361;28;20028;-89
2021/09/16 02:37:11;;;;;;;5.53;1.10;;;;;;;13.73;100.00;100143.03;5055732;28;20021;-89
2021/09/16 02:39:36;;;;;;;4.72;1.50;;;;;;;13.67;100.00;100138.06;5055342;28;20056;-89
2021/09/16 02:42:01;;;;;;;5.70;1.30;;;;;;;13.67;100.00;100148.50;5055215;28;20156;-89
2021/09/16 02:44:26;;;;;;;7.18;1.20;;;;;;;13.70;100.00;100145.78;5055254;28;20016;-89
2021/09/16 02:46:52;;;;;;;7.93;1.40;;;;;;;13.65;100.00;100155.53;5073069;28;20060;-89
2021/09/16 02:49:17;;;;;;;7.35;1.40;;;;;;;13.61;100.00;100161.75;5055070;28;20025;-89
2021/09/16 02:51:42;;;;;;;7.18;1.33;;;;;;;13.64;100.00;100159.91;5055413;28;20477;-89
2021/09/16 02:54:08;;;;;;;9.55;1.63;;;;;;;13.61;100.00;100165.22;5055228;28;20020;-89
2021/09/16 02:56:33;;;;;;;5.15;0.98;;;;;;;13.67;100.00;100167.59;5055494;28;20020;-89
2021/09/16 02:58:59;;;;;;;5.15;1.10;;;;;;;13.57;100.00;100159.25;5055237;28;20025;-89
2021/09/16 03:01:24;;;;;;;4.40;1.38;;;;;;;13.56;100.00;100162.78;5055098;28;20112;-89
2021/09/16 03:03:49;;;;;;;6.32;1.38;;;;;;;13.57;100.00;100167.06;5055530;28;20035;-89
2021/09/16 03:06:14;;;;;;;7.68;1.42;;;;;;;13.62;100.00;100166.91;5073040;28;20071;-89
2021/09/16 03:08:40;;;;;;;6.63;1.00;;;;;;;13.61;100.00;100164.34;5055105;28;20024;-89
2021/09/16 03:11:05;;;;;;;9.70;1.55;;;;;;;13.57;100.00;100169.69;5055481;28;20035;-89
2021/09/16 03:13:30;;;;;;;11.73;2.42;;;;;;;13.56;100.00;100165.38;5055457;28;20125;-89
2021/09/16 03:15:56;;;;;;;7.18;1.15;;;;;;;13.45;100.00;100167.53;5055015;28;20107;-89
2021/09/16 03:18:21;;;;;;;6.90;1.00;;;;;;;13.43;100.00;100164.16;5056327;28;20066;-89
2021/09/16 03:20:46;;;;;;;6.05;1.15;;;;;;;13.40;100.00;100171.22;5058709;28;20027;-89
2021/09/16 03:23:11;;;;;;;6.15;1.20;;;;;;;13.32;100.00;100169.72;5058662;28;20032;-89
2021/09/16 03:25:37;;;;;;;4.78;0.93;;;;;;;13.28;100.00;100167.31;5058754;28;20503;-89
2021/09/16 03:28:02;;;;;;;8.05;0.90;;;;;;;13.27;100.00;100170.78;5058648;28;20139;-89
2021/09/16 03:30:27;;;;;;;8.18;1.00;;;;;;;13.22;100.00;100175.28;5058545;28;20028;-88
2021/09/16 03:32:52;;;;;;;5.25;0.60;;;;;;;13.20;100.00;100171.88;5058741;28;20081;-89
2021/09/16 03:35:18;;;;;;;8.27;1.08;;;;;;;13.21;100.00;100170.97;5058566;28;20016;-89
2021/09/16 03:37:43;;;;;;;5.63;1.00;;;;;;;13.19;100.00;100167.59;5058596;28;20035;-89
2021/09/16 03:40:09;;;;;;;7.05;1.00;;;;;;;13.22;100.00;100172.69;5058627;28;20388;-89
2021/09/16 03:42:35;;;;;;;3.35;0.75;;;;;;;13.22;100.00;100176.13;5058533;28;20119;-89
2021/09/16 03:45:01;;;;;;;7.90;1.00;;;;;;;13.18;100.00;100171.97;5058407;28;20024;-89
2021/09/16 03:47:26;;;;;;;8.13;0.85;;;;;;;13.21;100.00;100170.97;5076368;28;20016;-89
2021/09/16 03:49:51;;;;;;;6.95;0.93;;;;;;;13.19;100.00;100170.19;5058381;28;20101;-89
2021/09/16 03:52:17;;;;;;;5.43;0.80;;;;;;;13.17;100.00;100167.63;5058340;28;20484;-89
2021/09/16 03:54:42;;;;;;;3.35;0.80;;;;;;;13.19;100.00;100170.19;5058207;28;20032;-89
2021/09/16 03:57:08;;;;;;;4.47;0.70;;;;;;;13.18;100.00;100171.97;5058408;28;20503;-89
2021/09/16 03:59:33;;;;;;;3.97;0.93;;;;;;;13.14;100.00;100173.78;5058083;28;20072;-89
2021/09/16 04:01:58;;;;;;;6.68;0.98;;;;;;;13.09;100.00;100170.53;5076099;28;20020;-89
2021/09/16 04:04:24;;;;;;;5.43;0.93;;;;;;;13.07;100.00;100168.88;5058113;28;20097;-89
2021/09/16 04:06:50;;;;;;;11.20;0.98;;;;;;;13.04;100.00;100169.81;5058005;28;20055;-89
2021/09/16 04:09:15;;;;;;;11.48;1.52;;;;;;;12.97;100.00;100172.69;5075973;28;20029;-89
2021/09/16 04:11:41;;;;;;;7.22;0.90;;;;;;;12.90;100.00;100178.13;5079321;23;20048;-85
2021/09/16 04:14:06;;;;;;;8.38;0.90;;;;;;;12.84;100.00;100178.31;5059488;28;20028;-85
2021/09/16 04:16:31;;;;;;;7.97;1.20;;;;;;;12.80;100.00;100171.50;5058887;28;20060;-85
2021/09/16 04:18:57;;;;;;;7.10;1.38;;;;;;;12.76;100.00;100174.28;5058749;28;20016;-85
2021/09/16 04:21:23;;;;;;;6.85;1.40;;;;;;;12.73;100.00;100180.41;5076047;28;20028;-85
2021/09/16 04:23:48;;;;;;;7.40;1.08;;;;;;;12.70;100.00;100179.69;5058346;28;20173;-85
2021/09/16 04:26:14;;;;;;;6.60;1.17;;;;;;;12.66;100.00;100177.19;5075893;28;20028;-85
2021/09/16 04:28:40;;;;;;;6.07;1.40;;;;;;;12.63;100.00;100176.44;5076526;28;20103;-85
2021/09/16 04:31:05;;;;;;;8.18;1.40;;;;;;;12.58;100.00;100180.91;5075354;28;20028;-85
2021/09/16 04:33:30;;;;;;;8.45;1.20;;;;;;;12.53;100.00;100173.28;5057857;28;20074;-85
2021/09/16 04:35:56;;;;;;;8.98;1.10;;;;;;;12.50;100.00;100182.91;5058019;28;20032;-85
2021/09/16 04:38:21;;;;;;;6.82;1.17;;;;;;;12.44;100.00;100178.78;5057853;28;20035;-85
2021/09/16 04:40:46;;;;;;;9.15;1.13;;;;;;;12.46;100.00;100176.97;5075991;28;20074;-85
2021/09/16 04:43:12;;;;;;;9.73;1.42;;;;;;;12.51;100.00;100182.88;5057800;28;20044;-85
2021/09/16 04:45:37;;;;;;;7.43;1.50;;;;;;;12.54;100.00;100187.13;5057885;28;20032;-85
2021/09/16 04:48:02;;;;;;;7.63;1.85;;;;;;;12.55;100.00;100187.06;5058282;28;20067;-86
2021/09/16 04:50:27;;;;;;;9.52;1.90;;;;;;;12.60;100.00;100185.19;5057717;28;20020;-86
2021/09/16 04:52:53;;;;;;;8.75;2.00;;;;;;;12.63;100.00;100184.25;5057618;28;20380;-86
2021/09/16 04:55:19;;;;;;;10.02;2.00;;;;;;;12.63;100.00;100179.88;5057621;28;20028;-86
2021/09/16 04:57:44;;;;;;;6.68;2.22;;;;;;;12.67;100.00;100175.41;5075483;28;20120;-86
2021/09/16 05:00:10;;;;;;;9.55;2.05;;;;;;;12.66;100.00;100179.78;5057814;28;20024;-86
2021/09/16 05:02:35;;;;;;;9.63;2.22;;;;;;;12.64;100.00;100178.97;5057214;28;20063;-86
2021/09/16 05:05:00;;;;;;;8.70;2.20;;;;;;;12.58;100.00;100180.91;5057430;28;20021;-86
2021/09/16 05:07:26;;;;;;;9.15;2.10;;;;;;;12.51;100.00;100175.06;5057434;28;20020;-86
2021/09/16 05:09:51;;;;;;;7.25;2.38;;;;;;;12.57;100.00;100174.88;5057373;28;20084;-85
2021/09/16 05:12:16;;;;;;;8.07;2.35;;;;;;;12.58;100.00;100179.16;5057257;28;20526;-86
2021/09/16 05:14:41;;;;;;;9.63;2.45;;;;;;;12.64;100.00;100180.72;5075252;28;20024;-85
2021/09/16 05:17:07;;;;;;;10.20;2.80;;;;;;;12.67;100.00;100181.47;5058016;28;20530;-86
2021/09/16 05:19:32;;;;;;;8.18;2.60;;;;;;;12.72;100.00;100183.09;5057783;28;20103;-85
2021/09/16 05:21:57;;;;;;;8.43;2.88;;;;;;;12.73;100.00;100175.22;5057170;28;20032;-86
2021/09/16 05:24:23;;;;;;;10.32;2.70;;;;;;;12.78;100.00;100181.13;5056976;28;20384;-86
2021/09/16 05:26:48;;;;;;;6.38;3.08;;;;;;;12.85;100.00;100189.56;5056937;28;20075;-86
2021/09/16 05:29:13;;;;;;;10.57;3.05;;;;;;;12.95;100.00;100185.75;5056919;28;20552;-86
2021/09/16 05:31:39;;;;;;;9.93;3.95;;;;;;;12.99;100.00;100189.09;5057034;28;20020;-86
2021/09/16 05:34:05;;;;;;;8.38;2.40;;;;;;;13.03;100.00;100185.50;5056665;28;20384;-86
2021/09/16 05:36:30;;;;;;;11.27;2.95;;;;;;;12.99;100.00;100189.97;5056718;28;20112;-86
2021/09/16 05:38:56;;;;;;;8.93;3.28;;;;;;;12.97;100.00;100189.16;5056976;28;20056;-86
2021/09/16 05:41:21;;;;;;;7.93;2.58;;;;;;;13.03;100.00;100180.28;5059575;28;20032;-86
2021/09/16 05:43:46;;;;;;;12.85;4.03;;;;;;;13.00;100.00;100181.25;5099416;28;20068;-86
2021/09/16 05:46:12;;;;;;;7.07;3.50;;;;;;;13.02;100.00;100181.19;5084100;28;20025;-86
2021/09/16 05:48:37;;;;;;;7.50;3.90;;;;;;;12.99;100.00;100178.69;5057161;28;20064;-86
2021/09/16 05:51:02;;;;;;;19.58;5.82;;;;;;;13.01;100.00;100175.13;5056471;28;20480;-86
2021/09/16 05:53:28;;;;;;;11.68;4.50;;;;;;;12.99;100.00;100187.38;5056599;28;20103;-86
2021/09/16 05:55:53;;;;;;;14.82;4.70;;;;;;;13.07;100.00;100185.34;5056903;28;20043;-86
2021/09/16 05:58:19;;;;;;;12.13;5.22;;;;;;;13.08;100.00;100192.25;5056614;28;20047;-86
2021/09/16 06:00:44;;;;;;;11.90;5.70;;;;;;;13.07;100.00;100190.53;5056832;28;20020;-86
2021/09/16 06:03:09;;;;;;;16.02;6.15;;;;;;;13.14;100.00;100189.41;5056657;28;20020;-86
2021/09/16 06:05:35;;;;;;;12.55;7.00;;;;;;;13.10;100.00;100190.44;5056990;28;20059;-86
2021/09/16 06:08:00;;;;;;;11.75;6.30;;;;;;;13.13;100.00;100185.13;5074254;28;20024;-86
2021/09/16 06:10:25;;;;;;;16.13;6.90;;;;;;;13.16;100.00;100191.97;5073974;28;20107;-86
2021/09/16 06:12:50;;;;;;;11.98;6.55;;;;;;;13.15;100.00;100182.47;5074796;28;20029;-86
2021/09/16 06:15:16;;;;;;;15.82;7.32;;;;;;;13.11;100.00;100191.28;5063831;28;20012;-86
2021/09/16 06:17:41;;;;;;;14.38;7.25;;;;;;;13.11;100.00;100196.47;5056594;28;20089;-86
2021/09/16 06:20:07;;;;;;;15.23;7.65;;;;;;;13.16;100.00;100199.78;5056233;28;20031;-86
2021/09/16 06:22:33;;;;;;;12.18;6.88;;;;;;;13.18;100.00;100198.00;5073958;28;20032;-86
2021/09/16 06:24:58;;;;;;;11.43;7.75;;;;;;;13.27;100.00;100196.84;5056125;28;20020;-86
2021/09/16 06:27:23;;;;;;;18.67;7.47;;;;;;;13.35;100.00;100206.09;5057419;28;20036;-85
2021/09/16 06:29:48;;;;;;;20.40;8.25;;;;;;;13.38;100.00;100199.06;5073900;28;20362;-85
2021/09/16 06:32:14;;;;;;;26.10;8.63;;;;;;;13.43;100.00;100198.00;5056980;28;20020;-85
2021/09/16 06:34:39;;;;;;;29.70;9.60;;;;;;;13.39;100.00;100206.81;5055863;28;20025;-85
2021/09/16 06:37:04;;;;;;;27.30;8.77;;;;;;;13.35;100.00;100200.88;5055838;28;20206;-85
2021/09/16 06:39:30;;;;;;;38.00;8.98;;;;;;;13.46;100.00;100205.72;5073933;28;20024;-85
2021/09/16 06:41:55;;;;;;;19.70;7.25;;;;;;;13.51;100.00;100206.38;5074186;28;20029;-85
2021/09/16 06:44:21;;;;;;;17.60;6.20;;;;;;;13.47;100.00;100199.59;5074450;28;20103;-84
2021/09/16 06:46:46;;;;;;;13.88;6.30;;;;;;;13.50;100.00;100204.69;5057429;28;20024;-85
2021/09/16 06:49:11;;;;;;;15.55;6.53;;;;;;;13.59;100.00;100201.75;5056192;28;20032;-85
2021/09/16 06:51:36;;;;;;;21.23;7.00;;;;;;;13.55;100.00;100208.00;5056635;28;20020;-85
2021/09/16 06:54:02;;;;;;;17.40;7.20;;;;;;;13.48;100.00;100205.66;5058565;28;20547;-85
2021/09/16 06:56:27;;;;;;;21.00;7.82;;;;;;;13.63;100.00;100210.31;5060568;28;20035;-85
2021/09/16 06:58:53;;;;;;;17.38;7.40;;;;;;;13.65;100.00;100212.88;5060323;28;20021;-85
2021/09/16 07:01:18;;;;;;;15.10;7.43;;;;;;;13.59;100.00;100209.56;5060096;28;20024;-85
2021/09/16 07:03:45;;;;;;;16.13;7.60;;;;;;;13.79;100.00;100215.81;5061160;28;20119;-84
2021/09/16 07:06:11;;;;;;;12.38;7.35;;;;;;;13.78;100.00;100208.91;5059933;28;20021;-84
2021/09/16 07:08:36;;;;;;;13.13;7.38;;;;;;;13.71;100.00;100215.25;5060096;28;20066;-84
2021/09/16 07:11:01;;;;;;;16.17;7.82;;;;;;;13.68;100.00;100217.97;5077958;28;20090;-84
2021/09/16 07:13:26;;;;;;;14.05;7.70;;;;;;;13.67;100.00;100224.06;5060606;28;20039;-84
2021/09/16 07:15:51;;;;;;;14.20;7.18;;;;;;;13.81;100.00;100222.66;5060205;28;20103;-84
2021/09/16 07:18:17;;;;;;;14.48;7.20;;;;;;;13.74;100.00;100222.97;5059874;28;20439;-85
2021/09/16 07:20:43;;;;;;;13.95;7.65;;;;;;;13.84;100.00;100221.69;5059997;28;20027;-84
2021/09/16 07:23:08;;;;;;;12.13;7.28;;;;;;;13.87;100.00;100229.41;5059866;28;20024;-84
2021/09/16 07:25:33;;;;;;;13.05;7.30;;;;;;;13.96;100.00;100218.63;5059552;28;20021;-84
2021/09/16 07:27:58;;;;;;;13.68;7.47;;;;;;;13.99;100.00;100239.38;5077541;28;20017;-84
2021/09/16 07:30:24;;;;;;;12.60;7.47;;;;;;;14.00;100.00;100232.41;5059698;28;20051;-84
2021/09/16 07:32:49;;;;;;;14.65;7.82;;;;;;;14.03;100.00;100222.72;5078031;28;20028;-84
2021/09/16 07:35:15;;;;;;;15.60;7.85;;;;;;;14.00;100.00;100235.84;5059704;28;20017;-84
2021/09/16 07:37:40;;;;;;;16.88;8.25;;;;;;;14.04;100.00;100232.25;5059620;28;20036;-85
2021/09/16 07:40:07;;;;;;;16.45;8.00;;;;;;;14.16;100.00;100223.13;5059197;28;20056;-85
2021/09/16 07:42:32;;;;;;;13.25;7.38;;;;;;;14.23;100.00;100221.97;5076838;28;20024;-85
2021/09/16 07:44:57;;;;;;;13.02;7.47;;;;;;;14.33;100.00;100226.81;5059419;28;20115;-85
2021/09/16 07:47:23;;;;;;;11.88;6.90;;;;;;;14.34;100.00;100229.34;5078790;28;20476;-85
2021/09/16 07:49:48;;;;;;;12.90;7.35;;;;;;;14.34;100.00;100231.97;5066587;28;20028;-85
2021/09/16 07:52:14;;;;;;;13.75;6.95;;;;;;;14.45;100.00;100229.78;5058849;28;20503;-84
2021/09/16 07:54:40;;;;;;;12.52;7.65;;;;;;;14.45;100.00;100234.16;5058875;28;20055;-84
2021/09/16 07:57:05;;;;;;;10.57;6.88;;;;;;;14.51;100.00;100226.13;5059251;28;20117;-84
2021/09/16 07:59:31;;;;;;;12.02;7.22;;;;;;;14.66;100.00;100235.13;5076731;28;20020;-84
2021/09/16 08:01:56;;;;;;;10.93;6.50;;;;;;;14.67;100.00;100226.34;5063881;28;20052;-84
2021/09/16 08:04:22;;;;;;;10.27;5.88;;;;;;;14.77;100.00;100227.66;5083395;28;20012;-85
2021/09/16 08:06:47;;;;;;;12.23;5.82;;;;;;;14.82;100.00;100228.34;5070073;28;20028;-85
2021/09/16 08:09:13;;;;;;;10.40;6.22;;;;;;;14.78;100.00;100226.78;5060125;28;20028;-84
2021/09/16 08:11:39;;;;;;;14.30;5.35;;;;;;;14.76;100.00;100225.97;5058432;28;20123;-84
2021/09/16 08:14:05;;;;;;;7.60;4.75;;;;;;;14.68;100.00;100239.34;5076395;28;20020;-84
2021/09/16 08:16:30;;;;;;;7.65;4.60;;;;;;;14.60;100.00;100232.75;5058494;28;20062;-84
2021/09/16 08:18:55;;;;;;;9.15;4.47;;;;;;;14.73;100.00;100240.00;5058582;28;20035;-84
2021/09/16 08:21:22;;;;;;;12.15;4.43;;;;;;;15.06;100.00;100236.09;5058498;28;20435;-84
2021/09/16 08:23:47;;;;;;;8.90;4.40;;;;;;;15.10;100.00;100229.81;5059193;28;20050;-84
2021/09/16 08:26:13;;;;;;;9.30;3.83;;;;;;;15.02;100.00;100237.94;5076589;28;20032;-85
2021/09/16 08:28:39;;;;;;;8.57;3.53;;;;;;;15.03;100.00;100238.81;5076395;28;20091;-84
2021/09/16 08:31:06;;;;;;;8.43;3.60;;;;;;;14.98;100.00;100243.38;5058156;28;20124;-84
2021/09/16 08:33:31;;;;;;;9.13;3.53;;;;;;;14.82;100.00;100244.00;5076553;28;20028;-84
2021/09/16 08:35:57;;;;;;;8.52;3.60;;;;;;;14.85;100.00;100243.88;5058349;28;20467;-85
2021/09/16 08:38:23;;;;;;;10.60;4.05;;;;;;;15.03;100.00;100244.06;5076091;28;20111;-85
2021/09/16 08:40:48;;;;;;;12.25;4.00;;;;;;;14.86;100.00;100245.56;5076745;28;20016;-85
2021/09/16 08:43:14;;;;;;;7.55;3.40;;;;;;;15.16;100.00;100247.84;5076613;28;20025;-85
2021/09/16 08:45:40;;;;;;;10.52;3.03;;;;;;;15.45;100.00;100245.72;5059339;28;20028;-85
2021/09/16 08:48:06;;;;;;;7.18;3.40;;;;;;;15.76;100.00;100233.03;5077560;28;20421;-85
2021/09/16 08:50:32;;;;;;;16.13;3.92;;;;;;;16.05;100.00;100230.88;5076991;28;20496;-85
2021/09/16 08:52:58;;;;;;;14.65;4.35;;;;;;;15.85;100.00;100229.16;5060192;28;20043;-84
2021/09/16 08:55:25;;;;;;;7.03;2.88;;;;;;;15.96;100.00;100221.69;5059062;28;20028;-84
2021/09/16 08:57:59;;;;;;;7.97;2.30;;;;;;;16.04;100.00;100224.81;5077326;28;20052;-85
2021/09/16 09:00:25;;;;;;;10.15;2.17;;;;;;;16.46;100.00;100223.69;5058721;28;20078;-84
2021/09/16 09:02:51;;;;;;;6.05;1.75;;;;;;;16.57;100.00;100223.19;5076569;28;20037;-84
2021/09/16 09:05:18;;;;;;;8.20;1.75;;;;;;;16.25;100.00;100225.53;5058390;28;20431;-84
2021/09/16 09:07:49;;;;;;;7.38;1.77;;;;;;;16.54;100.00;100232.03;5076603;28;20059;-84
2021/09/16 09:10:43;;;;;;;8.95;2.35;;;;;;;16.63;100.00;100233.38;5057697;28;20066;-84
2021/09/16 09:13:29;;;;;;;7.35;1.60;;;;;;;16.69;100.00;100230.44;5057517;28;20025;-84
2021/09/16 09:16:01;;;;;;;9.05;1.75;;;;;;;16.62;100.00;100231.66;5076091;28;20017;-84
2021/09/16 09:18:40;;;;;;;6.40;1.60;;;;;;;16.57;100.00;100233.66;5060022;28;20484;-84
2021/09/16 09:21:09;;;;;;;6.35;2.33;;;;;;;16.77;100.00;100233.53;5075393;28;20032;-84
2021/09/16 09:23:37;;;;;;;7.00;1.50;;;;;;;16.84;100.00;100226.25;5075347;28;20499;-84
2021/09/16 09:26:22;;;;;;;9.32;1.75;;;;;;;16.89;100.00;100224.25;5062761;28;20020;-84
2021/09/16 09:28:50;;;;;;;6.53;1.63;;;;;;;17.21;100.00;100237.47;5058073;28;20020;-84
2021/09/16 09:31:20;;;;;;;6.97;1.75;;;;;;;17.08;100.00;100228.56;5075462;28;20020;-84
2021/09/16 09:33:45;;;;;;;12.32;2.53;;;;;;;16.85;100.00;100238.44;5058613;28;20069;-84
2021/09/16 09:36:20;;;;;;;9.32;2.38;;;;;;;16.91;100.00;100243.34;5058465;28;20016;-84
2021/09/16 09:38:49;;;;;;;7.15;2.00;;;;;;;16.97;100.00;100229.97;5076700;28;20028;-84
2021/09/16 09:41:27;;;;;;;12.60;2.65;;;;;;;17.38;100.00;100227.00;5077080;28;20078;-84
2021/09/16 09:44:11;;;;;;;6.80;1.70;;;;;;;17.29;100.00;100226.63;5059171;28;20534;-84
2021/09/16 09:46:38;;;;;;;12.05;2.65;;;;;;;17.34;100.00;100233.34;5057904;28;20028;-84
2021/09/16 09:49:06;;;;;;;6.63;2.60;;;;;;;17.37;100.00;100230.56;5076012;28;20028;-84
2021/09/16 09:51:51;;;;;;;7.38;2.25;;;;;;;17.23;100.00;100236.50;5057793;28;20020;-84
2021/09/16 09:54:34;;;;;;;10.68;2.00;;;;;;;17.60;100.00;100239.84;5075477;28;20420;-84
2021/09/16 09:57:13;;;;;;;7.47;2.03;;;;;;;18.18;100.00;100228.03;5057146;28;20051;-84
2021/09/16 09:59:58;;;;;;;8.55;2.15;;;;;;;18.34;100.00;100235.88;5056942;28;20025;-84
2021/09/16 10:02:40;;;;;;;10.57;1.85;;;;;;;18.09;100.00;100232.00;5075476;28;20029;-84
2021/09/16 10:05:36;;;;;;;8.75;2.15;;;;;;;17.96;100.00;100240.63;5057696;28;20029;-84
2021/09/16 10:08:11;;;;;;;8.18;2.00;;;;;;;17.63;100.00;100241.44;5075489;28;20051;-84
2021/09/16 10:10:56;;;;;;;9.82;1.98;;;;;;;17.91;100.00;100239.06;5057149;28;20411;-84
2021/09/16 10:13:21;;;;;;;;;;;;;;;17.67;100.00;100241.22;5078195;23;20064;-90
2021/09/16 10:15:52;;;;;;;5.90;1.98;;;;;;;17.65;100.00;100237.81;5055722;28;19943;-90
2021/09/16 10:18:19;;;;;;;8.88;2.42;;;;;;;18.21;100.00;100234.88;5055730;28;20523;-90
2021/09/16 10:20:45;;;;;;;7.22;1.77;;;;;;;18.47;100.00;100226.38;5055325;28;20035;-90
2021/09/16 10:23:12;;;;;;;6.53;2.05;;;;;;;19.21;100.00;100235.31;5055853;28;20028;-91
2021/09/16 10:25:47;;;;;;;9.65;2.05;;;;;;;18.71;100.00;100236.44;5056269;28;20025;-90
2021/09/16 10:28:13;;;;;;;8.55;1.90;;;;;;;18.42;100.00;100236.31;5055803;28;20025;-90
2021/09/16 10:30:40;;;;;;;7.95;2.03;;;;;;;18.12;100.00;100250.19;5055610;28;20111;-90
2021/09/16 10:33:11;;;;;;;7.03;1.50;;;;;;;17.95;100.00;100245.03;5055475;28;20020;-90
2021/09/16 10:35:43;;;;;;;8.57;1.70;;;;;;;18.14;100.00;100242.25;5055377;28;20020;-90
2021/09/16 10:38:23;;;;;;;6.25;1.40;;;;;;;18.45;100.00;100241.41;5055400;28;20075;-90
2021/09/16 10:40:49;;;;;;;3.80;1.15;;;;;;;18.67;100.00;100240.19;5055306;28;20066;-90
2021/09/16 10:43:23;;;;;;;4.45;1.20;;;;;;;18.74;100.00;100242.41;5055261;28;20016;-90
2021/09/16 10:45:50;;;;;;;4.88;1.33;;;;;;;20.07;100.00;100241.47;5073194;28;20032;-91
2021/09/16 10:48:15;;;;;;;4.85;1.40;;;;;;;20.51;100.00;100229.06;5055138;28;20020;-90
2021/09/16 10:50:49;;;;;;;5.80;1.30;;;;;;;20.51;100.00;100229.06;5055284;28;20039;-91
2021/09/16 10:53:30;;;;;;;6.38;1.20;;;;;;;20.28;100.00;100234.00;5055761;28;20115;-91
2021/09/16 10:55:56;;;;;;;12.75;2.00;;;;;;;19.42;100.00;100231.41;5055252;28;20035;-90
2021/09/16 10:58:25;;;;;;;9.02;2.15;;;;;;;19.26;100.00;100228.84;5055061;28;20024;-90
2021/09/16 11:00:53;;;;;;;9.20;1.20;;;;;;;19.26;100.00;100236.72;5055149;28;20028;-90
2021/09/16 11:03:18;;;;;;;6.03;1.65;;;;;;;18.97;100.00;100233.19;5055262;28;20016;-90
2021/09/16 11:05:46;;;;;;;3.97;1.05;;;;;;;18.93;100.00;100234.28;5073077;28;20021;-90
2021/09/16 11:08:21;;;;;;;5.95;1.20;;;;;;;19.48;100.00;100238.91;5055181;28;20019;-90
2021/09/16 11:10:48;;;;;;;7.40;1.50;;;;;;;21.88;100.00;100247.09;5055598;28;20074;-90
2021/09/16 11:13:41;;;;;;;5.05;1.08;;;;;;;22.32;100.00;100230.75;5054854;28;20489;-90